createdAt,value
2022-10-11T00:01:21.819Z,91.92
2022-10-11T00:03:48.418Z,92.20
2022-10-11T00:06:14.991Z,92.27
2022-10-11T00:08:41.695Z,92.43
2022-10-11T00:11:08.376Z,92.77
2022-10-11T00:13:35.721Z,93.00
2022-10-11T00:16:08.755Z,93.10
2022-10-11T00:18:35.457Z,93.31
2022-10-11T00:21:04.934Z,93.39
2022-10-11T00:23:31.848Z,93.61
2022-10-11T00:26:04.026Z,93.72
2022-10-11T00:28:33.854Z,94.17
2022-10-11T00:31:00.990Z,94.79
2022-10-11T00:33:27.942Z,94.85
2022-10-11T00:35:54.409Z,94.89
2022-10-11T00:38:21.125Z,94.79
2022-10-11T00:40:47.759Z,94.88
2022-10-11T00:43:21.300Z,95.03
2022-10-11T00:45:56.852Z,95.15
2022-10-11T00:48:42.301Z,95.32
2022-10-11T00:51:23.708Z,96.05
2022-10-11T00:53:51.565Z,95.75
2022-10-11T00:56:25.255Z,95.94
2022-10-11T00:58:54.243Z,95.80
2022-10-11T01:01:20.955Z,95.78
2022-10-11T01:03:47.612Z,97.52
2022-10-11T01:06:14.104Z,96.45
2022-10-11T01:08:40.642Z,96.08
2022-10-11T01:11:14.542Z,96.31
2022-10-11T01:13:47.261Z,96.31
2022-10-11T01:16:31.000Z,96.99
2022-10-11T01:19:35.320Z,96.74
2022-10-11T01:22:36.455Z,96.84
2022-10-11T01:25:21.446Z,97.33
2022-10-11T01:28:02.496Z,97.05
2022-10-11T01:30:31.598Z,97.36
2022-10-11T01:33:27.393Z,98.27
2022-10-11T01:36:01.419Z,98.04
2022-10-11T01:38:56.522Z,98.05
2022-10-11T01:41:28.087Z,97.87
2022-10-11T01:43:59.493Z,97.71
2022-10-11T01:46:28.623Z,98.45
2022-10-11T01:48:58.322Z,98.28
2022-10-11T01:51:29.014Z,98.77
2022-10-11T01:54:09.566Z,98.51
2022-10-11T01:57:09.295Z,98.33
2022-10-11T01:59:35.694Z,98.12
2022-10-11T02:02:39.790Z,98.66
2022-10-11T02:05:19.871Z,99.33
2022-10-11T02:08:07.309Z,98.38
2022-10-11T02:10:50.690Z,98.35
2022-10-11T02:13:36.698Z,98.98
2022-10-11T02:16:07.893Z,99.10
2022-10-11T02:18:39.212Z,99.30
2022-10-11T02:21:08.747Z,98.82
2022-10-11T02:23:41.182Z,98.83
2022-10-11T02:26:11.153Z,98.89
2022-10-11T02:28:41.873Z,98.77
2022-10-11T02:31:11.597Z,98.71
2022-10-11T02:33:44.391Z,98.46
2022-10-11T02:36:17.971Z,98.53
2022-10-11T02:38:49.794Z,98.52
2022-10-11T02:41:19.669Z,98.32
2022-10-11T02:43:57.481Z,98.66
2022-10-11T02:46:26.280Z,98.68
2022-10-11T02:48:53.840Z,98.54
2022-10-11T02:51:20.475Z,98.55
2022-10-11T02:53:47.476Z,99.99
2022-10-11T02:56:14.047Z,98.93
2022-10-11T02:58:40.504Z,98.66
2022-10-11T03:01:07.090Z,98.79
2022-10-11T03:03:33.636Z,99.99
2022-10-11T03:06:02.482Z,99.99
2022-10-11T03:08:29.742Z,99.99
2022-10-11T03:10:56.432Z,99.99
2022-10-11T03:13:22.941Z,99.99
2022-10-11T03:16:02.334Z,99.99
2022-10-11T03:18:29.848Z,99.78
2022-10-11T03:20:56.434Z,99.99
2022-10-11T03:23:22.906Z,99.99
2022-10-11T03:25:49.619Z,99.99
2022-10-11T03:28:16.146Z,99.99
2022-10-11T03:30:42.632Z,99.99
2022-10-11T03:33:09.113Z,99.96
2022-10-11T03:35:35.619Z,99.95
2022-10-11T03:38:02.110Z,99.99
2022-10-11T03:40:28.611Z,99.99
2022-10-11T03:42:56.579Z,99.99
2022-10-11T03:45:23.519Z,99.99
2022-10-11T03:47:50.050Z,99.99
2022-10-11T03:50:16.799Z,99.99
2022-10-11T03:52:43.315Z,99.99
2022-10-11T03:55:09.795Z,99.99
2022-10-11T03:57:36.273Z,99.99
2022-10-11T04:00:02.900Z,99.99
2022-10-11T04:02:29.599Z,99.99
2022-10-11T04:04:56.105Z,99.99
2022-10-11T04:07:22.816Z,99.99
2022-10-11T04:09:49.367Z,99.99
2022-10-11T04:12:15.934Z,99.99
2022-10-11T04:14:42.431Z,99.99
2022-10-11T04:17:08.986Z,99.99
2022-10-11T04:19:37.205Z,99.99
2022-10-11T04:22:07.291Z,99.99
2022-10-11T04:24:34.069Z,99.99
2022-10-11T04:27:00.598Z,99.99
2022-10-11T04:29:32.206Z,99.99
2022-10-11T04:31:59.438Z,99.99
2022-10-11T04:34:26.171Z,99.99
2022-10-11T04:36:52.718Z,99.99
2022-10-11T04:39:19.250Z,99.99
2022-10-11T04:41:45.802Z,99.99
2022-10-11T04:44:12.480Z,99.99
2022-10-11T04:46:39.087Z,99.99
2022-10-11T04:49:06.110Z,99.99
2022-10-11T04:51:33.763Z,99.99
2022-10-11T04:54:00.384Z,99.99
2022-10-11T04:56:26.888Z,99.99
2022-10-11T04:58:54.606Z,99.99
2022-10-11T05:01:21.456Z,99.99
2022-10-11T05:03:48.328Z,99.99
2022-10-11T05:06:15.032Z,99.99
2022-10-11T05:08:41.663Z,99.99
2022-10-11T05:11:15.788Z,99.99
2022-10-11T05:13:43.868Z,99.99
2022-10-11T05:16:11.799Z,99.99
2022-10-11T05:18:39.426Z,99.99
2022-10-11T05:21:20.555Z,99.99
2022-10-11T05:23:48.493Z,99.99
2022-10-11T05:26:16.093Z,99.99
2022-10-11T05:28:42.877Z,99.99
2022-10-11T05:31:09.731Z,99.99
2022-10-11T05:33:36.710Z,99.99
2022-10-11T05:36:04.029Z,99.99
2022-10-11T05:38:30.774Z,99.99
2022-10-11T05:41:01.864Z,99.99
2022-10-11T05:43:29.364Z,99.99
2022-10-11T05:45:57.226Z,99.99
2022-10-11T05:48:26.903Z,99.99
2022-10-11T05:50:59.141Z,99.99
2022-10-11T05:53:25.906Z,99.99
2022-10-11T05:55:52.436Z,99.99
2022-10-11T05:58:19.282Z,99.99
2022-10-11T06:00:45.876Z,99.99
2022-10-11T06:03:13.343Z,99.99
2022-10-11T06:05:40.069Z,99.99
2022-10-11T06:08:08.587Z,99.99
2022-10-11T06:10:36.270Z,99.99
2022-10-11T06:13:03.041Z,99.99
2022-10-11T06:15:29.663Z,99.99
2022-10-11T06:17:56.550Z,99.99
2022-10-11T06:20:23.006Z,99.99
2022-10-11T06:22:49.464Z,99.99
2022-10-11T06:25:16.073Z,99.99
2022-10-11T06:27:42.670Z,99.99
2022-10-11T06:30:09.665Z,99.99
2022-10-11T06:32:36.273Z,99.74
2022-10-11T06:35:04.106Z,99.46
2022-10-11T06:37:30.793Z,99.44
2022-10-11T06:39:57.375Z,99.20
2022-10-11T06:42:24.233Z,99.68
2022-10-11T06:44:50.772Z,98.70
2022-10-11T06:47:17.237Z,99.10
2022-10-11T06:49:43.763Z,98.48
2022-10-11T06:52:10.356Z,98.82
2022-10-11T06:54:40.074Z,97.66
2022-10-11T06:57:10.067Z,98.06
2022-10-11T06:59:36.610Z,97.54
2022-10-11T07:02:03.102Z,97.15
2022-10-11T07:04:29.672Z,97.05
2022-10-11T07:06:56.700Z,96.70
2022-10-11T07:09:23.296Z,95.90
2022-10-11T07:11:49.866Z,95.76
2022-10-11T07:14:16.411Z,96.20
2022-10-11T07:16:43.442Z,95.21
2022-10-11T07:19:10.049Z,95.45
2022-10-11T07:21:36.910Z,94.93
2022-10-11T07:24:03.980Z,95.47
2022-10-11T07:26:36.852Z,94.03
2022-10-11T07:29:05.859Z,94.42
2022-10-11T07:31:32.609Z,94.18
2022-10-11T07:33:59.157Z,93.31
2022-10-11T07:36:25.982Z,93.03
2022-10-11T07:38:52.513Z,92.36
2022-10-11T07:41:19.855Z,92.50
2022-10-11T07:43:47.930Z,92.67
2022-10-11T07:46:14.856Z,92.10
2022-10-11T07:48:41.817Z,92.03
2022-10-11T07:51:08.349Z,91.95
2022-10-11T07:53:39.495Z,91.23
2022-10-11T07:56:06.975Z,90.78
2022-10-11T07:58:33.853Z,90.07
2022-10-11T08:01:00.508Z,89.70
2022-10-11T08:03:27.290Z,90.15
2022-10-11T08:05:53.871Z,89.51
2022-10-11T08:08:20.379Z,87.07
2022-10-11T08:10:46.978Z,87.84
2022-10-11T08:13:14.386Z,88.18
2022-10-11T08:15:40.994Z,87.11
2022-10-11T08:18:07.471Z,86.16
2022-10-11T08:20:34.089Z,83.85
2022-10-11T08:23:00.656Z,79.46
2022-10-11T08:25:27.238Z,70.93
2022-10-11T08:27:53.737Z,67.85
2022-10-11T08:30:20.310Z,63.72
2022-10-11T08:32:46.835Z,62.89
2022-10-11T08:35:13.766Z,60.21
2022-10-11T08:37:40.336Z,59.48
2022-10-11T08:40:35.992Z,61.58
2022-10-11T08:43:05.552Z,63.09
2022-10-11T08:45:42.257Z,67.22
2022-10-11T08:48:18.449Z,66.90
2022-10-11T08:50:49.453Z,66.96
2022-10-11T08:53:22.821Z,68.69
2022-10-11T08:55:55.068Z,70.37
2022-10-11T08:58:37.928Z,71.04
2022-10-11T09:01:11.776Z,70.03
2022-10-11T09:03:41.976Z,64.52
2022-10-11T09:06:41.585Z,60.32
2022-10-11T09:09:26.651Z,56.59
2022-10-11T09:12:11.546Z,53.59
2022-10-11T09:14:38.046Z,50.22
2022-10-11T09:17:25.362Z,46.83
2022-10-11T09:20:28.846Z,47.25
2022-10-11T09:23:34.795Z,45.56
2022-10-11T09:26:07.541Z,45.21
2022-10-11T09:29:00.192Z,45.27
2022-10-11T09:31:28.476Z,44.08
2022-10-11T09:33:55.925Z,51.03
2022-10-11T09:36:37.551Z,47.81
2022-10-11T09:39:23.089Z,45.18
2022-10-11T09:41:58.753Z,43.95
2022-10-11T09:44:28.345Z,44.58
2022-10-11T09:46:56.869Z,44.50
2022-10-11T09:49:31.087Z,39.81
2022-10-11T09:52:00.763Z,39.67
2022-10-11T09:54:58.239Z,42.65
2022-10-11T09:57:30.389Z,41.80
2022-10-11T10:00:21.262Z,41.83
2022-10-11T10:02:51.010Z,41.88
2022-10-11T10:05:28.839Z,43.16
2022-10-11T10:08:04.537Z,40.04
2022-10-11T10:10:38.499Z,41.55
2022-10-11T10:13:16.280Z,44.32
2022-10-11T10:15:46.533Z,47.08
2022-10-11T10:18:29.637Z,49.05
2022-10-11T10:20:59.412Z,48.99
2022-10-11T10:23:29.742Z,51.45
2022-10-11T10:26:19.845Z,54.32
2022-10-11T10:29:08.453Z,57.07
2022-10-11T10:32:01.943Z,57.17
2022-10-11T10:34:31.475Z,58.43
2022-10-11T10:37:08.471Z,57.09
2022-10-11T10:39:49.960Z,55.33
2022-10-11T10:42:19.032Z,55.33
2022-10-11T10:44:52.458Z,56.37
2022-10-11T10:47:24.334Z,54.98
2022-10-11T10:50:00.666Z,55.01
2022-10-11T10:53:05.426Z,55.38
2022-10-11T10:55:42.846Z,56.76
2022-10-11T10:58:42.660Z,54.50
2022-10-11T11:01:15.801Z,55.95
2022-10-11T11:04:04.881Z,56.70
2022-10-11T11:06:51.114Z,57.48
2022-10-11T11:09:30.984Z,58.35
2022-10-11T11:12:25.574Z,59.71
2022-10-11T11:15:03.076Z,60.15
2022-10-11T11:18:20.697Z,60.31
2022-10-11T11:21:17.425Z,60.28
2022-10-11T11:24:11.534Z,58.39
2022-10-11T11:26:49.761Z,53.43
2022-10-11T11:29:37.827Z,49.90
2022-10-11T11:32:25.918Z,50.31
2022-10-11T11:35:09.189Z,50.37
2022-10-11T11:37:40.334Z,50.07
2022-10-11T11:40:17.455Z,48.72
2022-10-11T11:42:48.670Z,48.17
2022-10-11T11:45:22.682Z,50.14
2022-10-11T11:48:01.728Z,51.61
2022-10-11T11:50:37.026Z,53.22
2022-10-11T11:53:11.840Z,51.24
2022-10-11T11:55:52.595Z,51.85
2022-10-11T11:58:32.396Z,48.56
2022-10-11T12:01:15.546Z,48.95
2022-10-11T12:03:47.740Z,51.70
2022-10-11T12:06:14.528Z,53.29
2022-10-11T12:08:44.480Z,54.55
2022-10-11T12:11:36.954Z,55.98
2022-10-11T12:14:16.948Z,53.69
2022-10-11T12:17:06.949Z,56.38
2022-10-11T12:19:34.031Z,57.54
2022-10-11T12:22:19.106Z,57.42
2022-10-11T12:25:18.374Z,55.88
2022-10-11T12:27:51.521Z,55.60
2022-10-11T12:30:42.586Z,55.36
2022-10-11T12:33:22.223Z,54.94
2022-10-11T12:35:54.728Z,50.98
2022-10-11T12:38:37.744Z,47.60
2022-10-11T12:41:10.026Z,45.46
2022-10-11T12:44:19.198Z,43.53
2022-10-11T12:47:16.753Z,44.54
2022-10-11T12:50:12.542Z,41.24
2022-10-11T12:53:00.865Z,40.85
2022-10-11T12:55:50.644Z,38.23
2022-10-11T12:58:43.962Z,38.37
2022-10-11T13:01:17.347Z,37.03
2022-10-11T13:04:08.024Z,38.89
2022-10-11T13:06:38.031Z,38.24
2022-10-11T13:09:35.447Z,45.05
2022-10-11T13:12:23.330Z,44.20
2022-10-11T13:15:14.477Z,44.25
2022-10-11T13:17:41.588Z,41.14
2022-10-11T13:20:17.807Z,41.97
2022-10-11T13:22:51.036Z,42.88
2022-10-11T13:25:23.866Z,43.33
2022-10-11T13:27:52.958Z,43.87
2022-10-11T13:30:25.463Z,42.38
2022-10-11T13:32:53.181Z,43.58
2022-10-11T13:35:28.622Z,44.60
2022-10-11T13:37:55.359Z,44.87
2022-10-11T13:40:23.087Z,44.96
2022-10-11T13:42:51.718Z,47.89
2022-10-11T13:45:21.609Z,44.62
2022-10-11T13:47:50.093Z,45.75
2022-10-11T13:50:33.361Z,43.83
2022-10-11T13:53:01.179Z,45.48
2022-10-11T13:55:46.561Z,45.67
2022-10-11T13:58:23.182Z,44.19
2022-10-11T14:01:02.665Z,42.68
2022-10-11T14:03:45.947Z,42.58
2022-10-11T14:06:12.523Z,45.28
2022-10-11T14:08:41.788Z,41.48
2022-10-11T14:11:10.575Z,40.88
2022-10-11T14:13:40.139Z,42.50
2022-10-11T14:16:07.239Z,43.67
2022-10-11T14:18:42.864Z,45.59
2022-10-11T14:21:28.192Z,45.57
2022-10-11T14:24:01.472Z,44.33
2022-10-11T14:26:36.567Z,45.04
2022-10-11T14:29:07.980Z,45.04
2022-10-11T14:31:39.182Z,49.23
2022-10-11T14:34:08.952Z,48.67
2022-10-11T14:36:35.462Z,50.64
2022-10-11T14:39:01.985Z,51.15
2022-10-11T14:41:28.492Z,52.71
2022-10-11T14:43:56.498Z,48.49
2022-10-11T14:46:27.638Z,51.70
2022-10-11T14:48:56.318Z,54.12
2022-10-11T14:51:27.023Z,55.45
2022-10-11T14:53:54.029Z,58.36
2022-10-11T14:56:21.815Z,56.32
2022-10-11T14:58:48.926Z,55.33
2022-10-11T15:01:17.267Z,58.22
2022-10-11T15:03:43.943Z,57.13
2022-10-11T15:06:18.872Z,56.22
2022-10-11T15:08:45.458Z,55.56
2022-10-11T15:11:14.585Z,53.13
2022-10-11T15:13:41.228Z,57.54
2022-10-11T15:16:08.315Z,54.05
2022-10-11T15:18:35.118Z,54.96
2022-10-11T15:21:01.687Z,59.91
2022-10-11T15:23:28.228Z,55.78
2022-10-11T15:25:54.782Z,59.24
2022-10-11T15:28:29.674Z,62.20
2022-10-11T15:30:56.624Z,64.64
2022-10-11T15:33:24.096Z,65.88
2022-10-11T15:35:50.989Z,66.54
2022-10-11T15:38:20.078Z,67.90
2022-10-11T15:40:47.763Z,67.92
2022-10-11T15:43:14.939Z,69.61
2022-10-11T15:45:42.103Z,70.09
2022-10-11T15:48:14.574Z,70.99
2022-10-11T15:50:41.533Z,70.92
2022-10-11T15:53:17.854Z,71.70
2022-10-11T15:55:50.867Z,72.73
2022-10-11T15:58:21.695Z,73.68
2022-10-11T16:00:50.572Z,74.27
2022-10-11T16:03:18.402Z,74.66
2022-10-11T16:05:44.960Z,75.31
2022-10-11T16:08:11.871Z,76.06
2022-10-11T16:10:39.029Z,76.82
2022-10-11T16:13:05.816Z,77.59
2022-10-11T16:15:32.540Z,78.52
2022-10-11T16:17:59.119Z,78.41
2022-10-11T16:20:25.641Z,79.50
2022-10-11T16:22:53.674Z,79.08
2022-10-11T16:25:21.367Z,79.22
2022-10-11T16:27:48.131Z,79.72
2022-10-11T16:30:16.166Z,80.90
2022-10-11T16:32:44.351Z,81.09
2022-10-11T16:35:13.073Z,81.06
2022-10-11T16:37:40.734Z,81.43
2022-10-11T16:40:09.030Z,81.43
2022-10-11T16:42:35.736Z,81.91
2022-10-11T16:45:02.243Z,82.24
2022-10-11T16:47:28.887Z,82.41
2022-10-11T16:49:55.833Z,82.91
2022-10-11T16:52:22.510Z,83.09
2022-10-11T16:54:49.320Z,83.22
2022-10-11T16:57:17.750Z,83.52
2022-10-11T16:59:44.655Z,84.35
2022-10-11T17:02:17.079Z,84.33
2022-10-11T17:04:44.521Z,84.69
2022-10-11T17:07:14.629Z,84.62
2022-10-11T17:09:44.334Z,85.25
2022-10-11T17:12:13.497Z,85.46
2022-10-11T17:14:41.390Z,85.93
2022-10-11T17:17:09.166Z,86.47
2022-10-11T17:19:41.336Z,86.22
2022-10-11T17:22:12.327Z,86.90
2022-10-11T17:24:39.280Z,86.74
2022-10-11T17:27:06.853Z,86.86
2022-10-11T17:29:33.696Z,87.09
2022-10-11T17:32:00.610Z,87.62
2022-10-11T17:34:27.163Z,87.45
2022-10-11T17:36:53.680Z,87.66
2022-10-11T17:39:22.338Z,87.95
2022-10-11T17:41:49.740Z,87.96
2022-10-11T17:44:19.541Z,88.30
2022-10-11T17:46:47.227Z,88.30
2022-10-11T17:49:14.185Z,88.45
2022-10-11T17:51:41.219Z,88.67
2022-10-11T17:54:12.633Z,88.95
2022-10-11T17:56:40.912Z,89.42
2022-10-11T17:59:08.514Z,89.50
2022-10-11T18:01:35.794Z,89.54
2022-10-11T18:04:04.632Z,89.78
2022-10-11T18:06:33.493Z,89.81
2022-10-11T18:09:01.919Z,90.28
2022-10-11T18:11:29.089Z,90.14
2022-10-11T18:13:55.758Z,90.30
2022-10-11T18:16:24.726Z,90.17
2022-10-11T18:18:51.237Z,90.48
2022-10-11T18:21:18.741Z,90.54
2022-10-11T18:23:46.733Z,90.83
2022-10-11T18:26:19.509Z,90.85
2022-10-11T18:28:46.804Z,90.98
2022-10-11T18:31:17.755Z,91.11
2022-10-11T18:33:45.952Z,91.28
2022-10-11T18:36:15.270Z,91.42
2022-10-11T18:38:46.197Z,91.48
2022-10-11T18:41:15.117Z,91.82
2022-10-11T18:43:41.670Z,91.74
2022-10-11T18:46:11.358Z,91.89
2022-10-11T18:48:42.255Z,91.95
2022-10-11T18:51:14.891Z,92.07
2022-10-11T18:53:42.281Z,92.05
2022-10-11T18:56:10.433Z,92.32
2022-10-11T18:58:38.795Z,92.33
2022-10-11T19:01:15.928Z,92.43
2022-10-11T19:03:43.057Z,92.60
2022-10-11T19:06:16.842Z,92.51
2022-10-11T19:08:54.663Z,93.07
2022-10-11T19:11:22.742Z,92.89
2022-10-11T19:14:02.057Z,92.85
2022-10-11T19:16:29.785Z,92.80
2022-10-11T19:18:57.086Z,92.80
2022-10-11T19:21:23.698Z,92.78
2022-10-11T19:23:51.267Z,92.89
2022-10-11T19:26:27.030Z,93.11
2022-10-11T19:28:59.994Z,93.16
2022-10-11T19:31:27.133Z,93.26
2022-10-11T19:33:54.209Z,93.32
2022-10-11T19:36:20.724Z,93.45
2022-10-11T19:38:49.319Z,93.60
2022-10-11T19:41:18.671Z,93.45
2022-10-11T19:43:46.317Z,93.54
2022-10-11T19:46:20.318Z,93.49
2022-10-11T19:48:50.844Z,93.57
2022-10-11T19:51:26.248Z,93.80
2022-10-11T19:53:57.148Z,93.58
2022-10-11T19:56:27.538Z,93.73
2022-10-11T19:58:54.397Z,93.89
2022-10-11T20:01:26.692Z,94.03
2022-10-11T20:03:57.219Z,94.17
2022-10-11T20:06:25.656Z,94.02
2022-10-11T20:09:10.307Z,94.47
2022-10-11T20:11:39.264Z,94.21
2022-10-11T20:14:06.401Z,94.30
2022-10-11T20:16:33.086Z,94.48
2022-10-11T20:18:59.754Z,94.53
2022-10-11T20:21:29.466Z,94.53
2022-10-11T20:24:01.308Z,94.56
2022-10-11T20:26:29.092Z,94.72
2022-10-11T20:28:56.770Z,94.65
2022-10-11T20:31:29.224Z,94.60
2022-10-11T20:33:58.364Z,94.72
2022-10-11T20:36:27.861Z,94.80
2022-10-11T20:38:54.352Z,94.83
2022-10-11T20:41:23.575Z,94.86
2022-10-11T20:43:53.362Z,95.04
2022-10-11T20:46:27.896Z,95.20
2022-10-11T20:49:01.897Z,95.15
2022-10-11T20:51:30.262Z,95.18
2022-10-11T20:53:57.026Z,95.25
2022-10-11T20:56:23.743Z,95.30
2022-10-11T20:58:52.539Z,95.09
2022-10-11T21:01:26.207Z,95.14
2022-10-11T21:03:52.877Z,95.11
2022-10-11T21:06:19.773Z,95.10
2022-10-11T21:08:46.223Z,95.30
2022-10-11T21:11:12.962Z,95.32
2022-10-11T21:13:40.826Z,95.30
2022-10-11T21:16:11.268Z,95.43
2022-10-11T21:18:38.161Z,95.51
2022-10-11T21:21:09.514Z,95.59
2022-10-11T21:23:36.043Z,95.42
2022-10-11T21:26:06.388Z,95.72
2022-10-11T21:28:33.303Z,95.75
2022-10-11T21:31:08.541Z,95.74
2022-10-11T21:33:35.750Z,95.81
2022-10-11T21:36:21.972Z,95.64
2022-10-11T21:38:49.993Z,95.91
2022-10-11T21:41:19.745Z,95.95
2022-10-11T21:43:47.356Z,95.78
2022-10-11T21:46:18.391Z,95.92
2022-10-11T21:48:45.887Z,96.08
2022-10-11T21:51:18.074Z,96.07
2022-10-11T21:53:44.776Z,96.04
2022-10-11T21:56:11.446Z,96.12
2022-10-11T21:58:38.241Z,96.02
2022-10-11T22:01:05.057Z,95.97
2022-10-11T22:03:31.926Z,96.13
2022-10-11T22:06:01.650Z,96.06
2022-10-11T22:08:28.193Z,95.90
2022-10-11T22:10:57.313Z,96.07
2022-10-11T22:13:25.266Z,96.01
2022-10-11T22:15:51.762Z,96.01
2022-10-11T22:18:18.434Z,96.16
2022-10-11T22:20:44.907Z,96.19
2022-10-11T22:23:11.610Z,96.03
2022-10-11T22:25:39.107Z,96.31
2022-10-11T22:28:06.465Z,96.05
2022-10-11T22:30:33.128Z,96.27
2022-10-11T22:32:59.585Z,95.94
2022-10-11T22:35:26.171Z,96.05
2022-10-11T22:37:52.932Z,96.06
2022-10-11T22:40:20.368Z,96.23
2022-10-11T22:42:46.926Z,96.30
2022-10-11T22:45:13.450Z,96.42
2022-10-11T22:47:39.915Z,96.37
2022-10-11T22:50:06.833Z,96.51
2022-10-11T22:52:33.510Z,96.38
2022-10-11T22:54:59.972Z,96.51
2022-10-11T22:57:26.569Z,96.39
2022-10-11T22:59:53.172Z,96.55
2022-10-11T23:02:19.592Z,96.48
2022-10-11T23:04:46.089Z,96.56
2022-10-11T23:07:12.575Z,96.56
2022-10-11T23:09:39.180Z,96.45
2022-10-11T23:12:06.013Z,96.40
2022-10-11T23:14:32.422Z,96.39
2022-10-11T23:16:58.851Z,96.39
2022-10-11T23:19:25.335Z,96.18
2022-10-11T23:21:51.806Z,96.40
2022-10-11T23:24:18.313Z,96.45
2022-10-11T23:26:44.790Z,96.69
2022-10-11T23:29:11.602Z,96.60
2022-10-11T23:31:38.046Z,96.60
2022-10-11T23:34:04.516Z,96.86
2022-10-11T23:36:31.004Z,96.66
2022-10-11T23:38:59.411Z,96.71
2022-10-11T23:41:28.980Z,96.79
2022-10-11T23:43:55.575Z,96.80
2022-10-11T23:46:22.437Z,96.83
2022-10-11T23:48:49.021Z,96.92
2022-10-11T23:51:15.991Z,97.12
2022-10-11T23:53:42.554Z,96.98
2022-10-11T23:56:10.689Z,97.05
2022-10-11T23:58:37.813Z,96.99
